Time;durP1;ratioP1;P1;durP2;ratioP2;P2;SDS_P1;SDS_P2;PMS_P1;PMS_P2;Temp;Humidity;BMP_temperature;BMP_pressure;BME280_temperature;BME280_humidity;BME280_pressure;Samples;Min_cycle;Max_cycle;Signal;HPM_P1;HPM_P2
2022/12/05 00:00:50;;;;;;;21.25;15.05;;;3.50;99.90;;;;;;5070311;28;20414;-69
2022/12/05 00:03:16;;;;;;;20.48;14.35;;;3.50;99.90;;;;;;5069411;28;20410;-70
2022/12/05 00:05:42;;;;;;;19.98;13.73;;;3.60;99.90;;;;;;5070204;28;20975;-69
2022/12/05 00:08:07;;;;;;;19.05;13.07;;;3.50;99.90;;;;;;5069897;28;20403;-69
2022/12/05 00:10:35;;;;;;;17.58;12.70;;;3.60;99.90;;;;;;5086478;28;20439;-69
2022/12/05 00:13:01;;;;;;;17.80;12.85;;;3.50;99.90;;;;;;5089450;28;20397;-69
2022/12/05 00:15:26;;;;;;;16.13;12.47;;;3.60;99.90;;;;;;5090209;28;20377;-68
2022/12/05 00:17:52;;;;;;;17.57;12.73;;;3.50;99.90;;;;;;5090281;28;20394;-69
2022/12/05 00:20:17;;;;;;;15.93;12.50;;;3.50;99.90;;;;;;5090133;28;20410;-68
2022/12/05 00:22:43;;;;;;;17.33;12.27;;;3.40;99.90;;;;;;5089333;28;20459;-69
2022/12/05 00:25:09;;;;;;;13.73;11.17;;;3.40;99.90;;;;;;5090102;28;20804;-69
2022/12/05 00:27:35;;;;;;;15.73;12.10;;;3.40;99.90;;;;;;5089918;28;20426;-69
2022/12/05 00:30:00;;;;;;;17.58;13.18;;;3.30;99.90;;;;;;5072017;28;20382;-69
2022/12/05 00:32:28;;;;;;;17.55;13.07;;;3.30;99.90;;;;;;5089761;28;20469;-69
2022/12/05 00:34:54;;;;;;;15.52;12.40;;;3.50;99.90;;;;;;5089668;28;20385;-69
2022/12/05 00:37:20;;;;;;;17.60;13.00;;;3.50;99.90;;;;;;5086132;28;20806;-70
2022/12/05 00:39:45;;;;;;;18.47;13.37;;;3.50;99.90;;;;;;5063280;28;20904;-69
2022/12/05 00:42:11;;;;;;;18.10;12.87;;;3.60;99.90;;;;;;5069929;28;20399;-69
2022/12/05 00:44:36;;;;;;;18.50;13.00;;;3.70;99.90;;;;;;5069096;28;20503;-69
2022/12/05 00:47:02;;;;;;;16.03;12.90;;;3.70;99.90;;;;;;5069720;28;20896;-69
2022/12/05 00:49:28;;;;;;;20.53;13.63;;;3.70;99.90;;;;;;5069795;28;20402;-69
2022/12/05 00:51:53;;;;;;;19.20;12.53;;;3.70;99.90;;;;;;5073714;28;20475;-70
2022/12/05 00:54:19;;;;;;;19.07;14.13;;;3.50;99.90;;;;;;5072717;28;20777;-69
2022/12/05 00:56:45;;;;;;;18.77;14.40;;;3.50;99.90;;;;;;5073579;28;20877;-69
2022/12/05 00:59:16;;;;;;;19.70;13.90;;;3.60;99.90;;;;;;5073741;28;20928;-69
2022/12/05 01:01:43;;;;;;;17.63;13.33;;;3.50;99.90;;;;;;5073527;28;20785;-69
2022/12/05 01:04:12;;;;;;;18.08;13.98;;;3.50;99.90;;;;;;5072563;28;20423;-69
2022/12/05 01:06:39;;;;;;;16.37;12.93;;;3.50;99.90;;;;;;5073491;28;20452;-69
2022/12/05 01:09:04;;;;;;;17.63;12.23;;;3.50;99.90;;;;;;5073673;28;20747;-70
2022/12/05 01:11:30;;;;;;;15.63;12.27;;;3.50;99.90;;;;;;5073716;28;20391;-70
2022/12/05 01:13:57;;;;;;;15.82;11.80;;;3.60;99.90;;;;;;5072750;28;20384;-69
2022/12/05 01:16:28;;;;;;;16.33;11.40;;;3.60;99.90;;;;;;5096248;22;20406;-69
2022/12/05 01:18:56;;;;;;;15.70;12.18;;;3.50;99.90;;;;;;5073409;28;20376;-68
2022/12/05 01:21:22;;;;;;;16.30;11.90;;;3.50;99.90;;;;;;5073238;28;20387;-68
2022/12/05 01:23:48;;;;;;;13.60;10.50;;;3.50;99.90;;;;;;5072469;28;20389;-69
2022/12/05 01:26:16;;;;;;;11.77;9.82;;;3.50;99.90;;;;;;5072943;28;20391;-68
2022/12/05 01:28:42;;;;;;;14.90;10.98;;;3.50;99.90;;;;;;5073201;28;20445;-69
2022/12/05 01:31:35;;;;;;;14.00;10.27;;;3.60;99.90;;;;;;5073266;28;20383;-69
2022/12/05 01:34:03;;;;;;;13.18;11.05;;;3.50;99.90;;;;;;5069696;28;20395;-67
2022/12/05 01:36:29;;;;;;;13.50;10.10;;;3.60;99.90;;;;;;5072890;28;20388;-67
2022/12/05 01:38:55;;;;;;;12.73;10.45;;;3.50;99.90;;;;;;5072981;28;20405;-68
2022/12/05 01:41:27;;;;;;;13.20;11.10;;;3.50;99.90;;;;;;5072779;28;20380;-70
2022/12/05 01:43:52;;;;;;;13.48;10.35;;;3.50;99.90;;;;;;5072176;28;20387;-70
2022/12/05 01:46:18;;;;;;;14.60;10.35;;;3.40;99.90;;;;;;5072884;28;20383;-69
2022/12/05 01:48:44;;;;;;;12.15;9.55;;;3.50;99.90;;;;;;5071759;28;20380;-69
2022/12/05 01:51:09;;;;;;;12.32;9.30;;;3.50;99.90;;;;;;5072820;28;20384;-69
2022/12/05 01:53:36;;;;;;;11.75;9.93;;;3.40;99.90;;;;;;5071872;28;20380;-69
2022/12/05 01:56:02;;;;;;;12.45;10.23;;;3.40;99.90;;;;;;5072765;28;20470;-70
2022/12/05 01:58:34;;;;;;;12.07;9.60;;;3.40;99.90;;;;;;5072677;28;20757;-69
2022/12/05 02:01:00;;;;;;;11.48;8.93;;;3.50;99.90;;;;;;5071752;28;20421;-70
2022/12/05 02:03:26;;;;;;;11.45;9.35;;;3.50;99.90;;;;;;5071811;28;20407;-68
2022/12/05 02:05:55;;;;;;;11.20;8.60;;;3.40;99.90;;;;;;5072434;28;20380;-68
2022/12/05 02:08:21;;;;;;;10.57;9.10;;;3.40;99.90;;;;;;5072219;28;20382;-69
2022/12/05 02:10:50;;;;;;;10.95;8.43;;;3.40;99.90;;;;;;5072246;28;20470;-69
2022/12/05 02:13:57;;;;;;;8.63;7.73;;;3.50;99.90;;;;;;5071761;28;20442;-68
2022/12/05 02:16:54;;;;;;;9.83;8.77;;;3.50;99.90;;;;;;5072114;28;20477;-68
2022/12/05 02:19:57;;;;;;;10.32;8.25;;;3.60;99.90;;;;;;5072369;28;20429;-70
2022/12/05 02:22:59;;;;;;;9.00;7.93;;;3.50;99.90;;;;;;5072033;28;20900;-66
2022/12/05 02:26:02;;;;;;;9.03;7.60;;;3.60;99.90;;;;;;5072156;28;20398;-69
2022/12/05 02:28:43;;;;;;;8.83;7.37;;;3.60;99.90;;;;;;5072073;28;20462;-68
2022/12/05 02:31:15;;;;;;;10.20;7.53;;;3.70;99.90;;;;;;5071844;28;20738;-68
2022/12/05 02:34:29;;;;;;;9.20;7.68;;;3.60;99.90;;;;;;5071161;28;20384;-68
2022/12/05 02:37:08;;;;;;;8.50;7.38;;;3.60;99.90;;;;;;5010142;28;20407;-68
2022/12/05 02:39:43;;;;;;;7.65;6.93;;;3.60;99.90;;;;;;5072118;28;20391;-68
2022/12/05 02:42:14;;;;;;;8.23;7.38;;;3.60;99.90;;;;;;5071653;28;20403;-69
2022/12/05 02:44:46;;;;;;;7.95;7.15;;;3.50;99.90;;;;;;5071079;28;20392;-69
2022/12/05 02:47:16;;;;;;;8.48;7.50;;;3.60;99.90;;;;;;5071767;28;20474;-68
2022/12/05 02:49:42;;;;;;;8.02;6.50;;;3.60;99.90;;;;;;5070802;28;20889;-68
2022/12/05 02:52:12;;;;;;;7.90;7.10;;;3.60;99.90;;;;;;5071656;28;20438;-67
2022/12/05 02:54:42;;;;;;;8.80;7.10;;;3.50;99.90;;;;;;5070846;28;20403;-69
2022/12/05 02:57:10;;;;;;;7.30;6.60;;;3.50;99.90;;;;;;5071445;28;20846;-68
2022/12/05 02:59:36;;;;;;;6.82;5.90;;;3.50;99.90;;;;;;5071477;28;20437;-68
2022/12/05 03:02:01;;;;;;;8.85;7.10;;;3.50;99.90;;;;;;5071239;28;20399;-69
2022/12/05 03:04:28;;;;;;;6.50;5.80;;;3.60;99.90;;;;;;5070492;28;20384;-68
2022/12/05 03:06:58;;;;;;;7.18;6.47;;;3.70;99.90;;;;;;5071244;28;20379;-69
2022/12/05 03:09:32;;;;;;;6.70;5.93;;;3.60;99.90;;;;;;5071301;28;20438;-68
2022/12/05 03:12:06;;;;;;;6.93;5.57;;;3.60;99.90;;;;;;5071122;28;20398;-68
2022/12/05 03:14:41;;;;;;;7.20;6.05;;;3.60;99.90;;;;;;5070341;28;20381;-68
2022/12/05 03:17:10;;;;;;;7.10;6.33;;;3.70;99.90;;;;;;5070959;28;20918;-69
2022/12/05 03:19:52;;;;;;;6.65;5.25;;;3.60;99.90;;;;;;5071032;28;21094;-68
2022/12/05 03:22:26;;;;;;;6.50;5.80;;;3.70;99.90;;;;;;5071054;28;20553;-67
2022/12/05 03:24:53;;;;;;;6.50;5.80;;;3.70;99.90;;;;;;5070597;28;20390;-68
2022/12/05 03:27:43;;;;;;;7.53;5.53;;;3.70;99.90;;;;;;5070991;28;20376;-68
2022/12/05 03:30:17;;;;;;;6.47;5.88;;;3.80;99.90;;;;;;5070862;28;20376;-69
2022/12/05 03:33:01;;;;;;;7.00;6.00;;;3.80;99.90;;;;;;5052289;28;20422;-69
2022/12/05 03:35:51;;;;;;;5.90;5.30;;;3.80;99.90;;;;;;5070712;28;20542;-68
2022/12/05 03:38:29;;;;;;;6.72;5.35;;;3.90;99.90;;;;;;5070785;28;20387;-69
2022/12/05 03:41:21;;;;;;;6.13;5.40;;;4.00;99.90;;;;;;5070797;28;20880;-69
2022/12/05 03:43:56;;;;;;;6.40;5.60;;;3.90;99.90;;;;;;5043978;28;20391;-69
2022/12/05 03:46:47;;;;;;;5.60;4.93;;;4.00;99.90;;;;;;5070652;28;20367;-68
2022/12/05 03:49:36;;;;;;;6.47;5.30;;;4.00;99.90;;;;;;5069711;28;20896;-68
2022/12/05 03:52:34;;;;;;;5.88;5.28;;;4.00;99.90;;;;;;5070850;28;20387;-68
2022/12/05 03:55:03;;;;;;;6.30;5.35;;;4.00;99.90;;;;;;5054858;28;20406;-68
2022/12/05 03:57:48;;;;;;;6.90;6.20;;;4.10;99.90;;;;;;5070493;28;20383;-69
2022/12/05 04:00:17;;;;;;;5.85;5.03;;;4.10;99.90;;;;;;5070494;28;20380;-68
2022/12/05 04:03:01;;;;;;;5.90;5.30;;;4.10;99.90;;;;;;5069838;28;21341;-68
2022/12/05 04:05:47;;;;;;;6.10;5.50;;;4.10;99.90;;;;;;5070499;28;20507;-68
2022/12/05 04:08:27;;;;;;;7.03;6.13;;;3.90;99.90;;;;;;5070293;28;20765;-69
2022/12/05 04:10:58;;;;;;;7.50;5.90;;;4.00;99.90;;;;;;5070403;28;20383;-68
2022/12/05 04:13:46;;;;;;;6.60;5.80;;;4.00;99.90;;;;;;5069834;28;20394;-68
2022/12/05 04:19:24;;;;;;;5.85;5.20;;;3.90;99.90;;;;;;5070703;28;20399;-68
2022/12/05 04:21:52;;;;;;;6.60;5.72;;;4.00;99.90;;;;;;5070465;28;20425;-68
2022/12/05 04:27:20;;;;;;;5.50;4.90;;;4.10;99.90;;;;;;5071043;28;20408;-68
2022/12/05 04:30:13;;;;;;;6.47;5.30;;;4.10;99.90;;;;;;5074543;28;20749;-69
2022/12/05 04:32:59;;;;;;;6.47;5.10;;;4.00;99.90;;;;;;5071185;28;20426;-68
2022/12/05 04:35:44;;;;;;;5.50;5.00;;;4.20;99.90;;;;;;5073975;28;20905;-68
2022/12/05 04:38:22;;;;;;;5.80;5.18;;;4.20;99.90;;;;;;5070819;28;20395;-68
2022/12/05 04:40:58;;;;;;;6.67;5.53;;;4.30;99.90;;;;;;5074163;28;20398;-68
2022/12/05 04:43:25;;;;;;;5.88;5.00;;;4.30;99.90;;;;;;5073369;28;20399;-68
2022/12/05 04:45:53;;;;;;;5.60;5.00;;;4.30;99.90;;;;;;5072383;28;20463;-69
2022/12/05 04:48:21;;;;;;;6.25;4.85;;;4.30;99.90;;;;;;5074024;28;20391;-68
2022/12/05 04:50:50;;;;;;;5.40;4.85;;;4.20;99.90;;;;;;5073892;28;20380;-69
2022/12/05 04:53:18;;;;;;;6.28;4.88;;;4.30;99.90;;;;;;5073287;28;20383;-69
2022/12/05 04:55:49;;;;;;;5.25;4.40;;;4.40;99.90;;;;;;5073980;28;20766;-67
2022/12/05 04:58:21;;;;;;;5.30;4.80;;;4.30;99.90;;;;;;5073764;28;20820;-68
2022/12/05 05:01:08;;;;;;;5.90;5.30;;;4.30;99.90;;;;;;5073799;28;20376;-68
2022/12/05 05:03:46;;;;;;;6.20;5.13;;;4.30;99.90;;;;;;5073035;28;20568;-69
2022/12/05 05:06:13;;;;;;;5.30;4.80;;;4.30;99.90;;;;;;5073588;28;20376;-68
2022/12/05 05:08:54;;;;;;;5.15;4.63;;;4.30;99.90;;;;;;5055558;28;20917;-67
2022/12/05 05:11:27;;;;;;;4.43;4.00;;;4.20;99.90;;;;;;5073583;28;20882;-69
2022/12/05 05:13:54;;;;;;;5.47;4.57;;;4.20;99.90;;;;;;5072834;28;20387;-70
2022/12/05 05:16:28;;;;;;;4.85;4.35;;;4.20;99.90;;;;;;5073249;28;20390;-69
2022/12/05 05:18:54;;;;;;;5.30;4.80;;;4.30;99.90;;;;;;5055385;28;20388;-69
2022/12/05 05:21:23;;;;;;;5.10;4.60;;;4.20;99.90;;;;;;5073364;28;20753;-66
2022/12/05 05:23:49;;;;;;;5.60;4.63;;;4.20;99.90;;;;;;5072962;28;20382;-69
2022/12/05 05:26:16;;;;;;;4.80;4.40;;;4.40;99.90;;;;;;5073309;28;20486;-69
2022/12/05 05:28:42;;;;;;;5.70;5.10;;;4.40;99.90;;;;;;5073501;28;20375;-69
2022/12/05 05:31:08;;;;;;;5.50;4.90;;;4.50;99.90;;;;;;5073254;28;20382;-69
2022/12/05 05:33:34;;;;;;;5.53;4.93;;;4.50;99.90;;;;;;5072497;28;20383;-69
2022/12/05 05:36:09;;;;;;;6.20;5.50;;;4.50;99.90;;;;;;5071748;28;20375;-70
2022/12/05 05:38:37;;;;;;;7.18;5.40;;;4.50;99.90;;;;;;5073195;28;20387;-69
2022/12/05 05:41:03;;;;;;;6.47;5.88;;;4.60;99.90;;;;;;5073198;28;20379;-68
2022/12/05 05:43:29;;;;;;;5.93;5.33;;;4.60;99.90;;;;;;5054912;28;20746;-68
2022/12/05 05:45:54;;;;;;;8.53;7.27;;;4.60;99.90;;;;;;5072186;28;20391;-69
2022/12/05 05:48:20;;;;;;;9.90;8.60;;;5.10;99.90;;;;;;5072791;28;20372;-69
2022/12/05 05:50:45;;;;;;;9.30;8.03;;;5.30;99.90;;;;;;5072824;28;20384;-69
2022/12/05 05:53:11;;;;;;;11.13;8.70;;;5.40;99.90;;;;;;5072124;28;20384;-68
2022/12/05 05:55:40;;;;;;;9.60;8.23;;;5.50;99.90;;;;;;5072873;28;20384;-70
2022/12/05 05:58:07;;;;;;;10.40;8.38;;;5.60;99.90;;;;;;5072669;28;20782;-69
2022/12/05 06:00:32;;;;;;;9.70;8.15;;;5.50;99.90;;;;;;5073427;28;20820;-67
2022/12/05 06:02:58;;;;;;;10.43;8.63;;;5.50;99.90;;;;;;5071736;28;20403;-67
2022/12/05 06:05:23;;;;;;;10.75;8.88;;;5.40;99.90;;;;;;5072558;28;20384;-69
2022/12/05 06:07:51;;;;;;;10.40;8.10;;;5.50;99.90;;;;;;5072320;28;20376;-70
2022/12/05 06:10:17;;;;;;;10.23;8.55;;;5.50;99.90;;;;;;5071862;28;20394;-70
2022/12/05 06:12:43;;;;;;;10.40;9.00;;;5.50;99.90;;;;;;5071254;28;20391;-70
2022/12/05 06:15:09;;;;;;;8.60;7.43;;;5.50;99.90;;;;;;5072287;28;20387;-69
2022/12/05 06:17:34;;;;;;;9.68;8.35;;;5.60;99.90;;;;;;5072028;28;20472;-69
2022/12/05 06:20:00;;;;;;;11.18;8.50;;;5.70;99.90;;;;;;5072181;28;20399;-68
2022/12/05 06:22:25;;;;;;;9.73;8.30;;;5.70;99.90;;;;;;5071596;28;20889;-70
2022/12/05 06:24:51;;;;;;;8.98;7.70;;;5.70;99.90;;;;;;5070425;28;20891;-70
2022/12/05 06:27:16;;;;;;;9.02;8.13;;;5.70;99.90;;;;;;5072614;28;20880;-69
2022/12/05 06:29:42;;;;;;;8.53;7.63;;;5.80;99.90;;;;;;5071875;28;20384;-69
2022/12/05 06:32:08;;;;;;;9.47;8.20;;;5.80;99.90;;;;;;5071762;28;20380;-69
2022/12/05 06:34:34;;;;;;;8.67;7.77;;;5.80;99.90;;;;;;5069699;28;20379;-70
2022/12/05 06:37:00;;;;;;;8.60;7.30;;;5.70;99.90;;;;;;5071718;28;20463;-69
2022/12/05 06:39:26;;;;;;;7.93;7.13;;;5.90;99.90;;;;;;5071827;28;20387;-67
2022/12/05 06:41:51;;;;;;;8.68;6.97;;;5.80;99.90;;;;;;5071598;28;20474;-67
2022/12/05 06:44:17;;;;;;;7.37;6.57;;;5.80;99.90;;;;;;5070896;28;20874;-70
2022/12/05 06:46:42;;;;;;;8.07;7.03;;;5.80;99.90;;;;;;5071039;28;20379;-68
2022/12/05 06:49:09;;;;;;;8.00;7.13;;;5.90;99.90;;;;;;5071646;28;20950;-68
2022/12/05 06:51:35;;;;;;;7.57;6.63;;;5.80;99.90;;;;;;5071615;28;20388;-66
2022/12/05 06:54:01;;;;;;;7.10;5.90;;;5.50;99.90;;;;;;5070823;28;20384;-67
2022/12/05 06:56:28;;;;;;;6.70;6.00;;;5.40;99.90;;;;;;5071482;28;20390;-67
2022/12/05 06:58:54;;;;;;;6.00;5.40;;;5.10;99.90;;;;;;5070038;28;20459;-68
2022/12/05 07:04:19;;;;;;;6.40;5.70;;;4.90;99.90;;;;;;5057354;28;20394;-68
2022/12/05 07:06:45;;;;;;;6.50;5.90;;;4.90;99.90;;;;;;5071376;28;20380;-68
2022/12/05 07:09:11;;;;;;;7.93;5.88;;;4.90;99.90;;;;;;5071051;28;20402;-68
2022/12/05 07:11:37;;;;;;;5.63;5.13;;;4.80;99.90;;;;;;5071356;28;20385;-67
2022/12/05 07:14:04;;;;;;;6.03;5.03;;;5.00;99.90;;;;;;5070529;28;20379;-68
2022/12/05 07:18:57;;;;;;;6.75;5.78;;;4.90;99.90;;;;;;5047931;28;20432;-69
2022/12/05 07:21:23;;;;;;;6.03;5.43;;;4.90;99.90;;;;;;5033475;28;20378;-69
2022/12/05 07:23:49;;;;;;;5.65;5.10;;;4.90;99.90;;;;;;5050251;28;20409;-70
2022/12/05 07:26:20;;;;;;;6.05;5.50;;;4.90;99.90;;;;;;5051476;28;20883;-69
2022/12/05 07:28:47;;;;;;;4.88;4.30;;;4.90;99.90;;;;;;5051079;28;20385;-69
2022/12/05 07:31:20;;;;;;;4.47;4.07;;;5.10;99.90;;;;;;5050783;28;20374;-69
2022/12/05 07:33:47;;;;;;;3.80;3.40;;;5.40;99.90;;;;;;5048558;28;20485;-69
2022/12/05 07:36:15;;;;;;;3.37;3.07;;;5.50;99.90;;;;;;5050856;28;20427;-69
2022/12/05 07:38:42;;;;;;;3.50;3.00;;;5.70;99.90;;;;;;5050687;28;20460;-70
2022/12/05 07:41:21;;;;;;;2.95;2.65;;;5.60;99.90;;;;;;5050923;28;20392;-70
2022/12/05 07:43:46;;;;;;;2.88;2.63;;;5.80;99.90;;;;;;5049882;28;20401;-70
2022/12/05 07:46:12;;;;;;;3.30;2.25;;;5.80;99.90;;;;;;5050809;28;20386;-70
2022/12/05 07:48:38;;;;;;;3.70;2.10;;;5.90;99.90;;;;;;5050824;28;20424;-70
2022/12/05 07:51:05;;;;;;;2.47;2.00;;;6.00;99.90;;;;;;5051013;28;20424;-70
2022/12/05 07:53:32;;;;;;;2.00;1.90;;;6.10;99.90;;;;;;5050111;28;20824;-70
2022/12/05 07:55:59;;;;;;;1.70;1.60;;;6.10;99.90;;;;;;5050787;28;20392;-70
2022/12/05 07:58:26;;;;;;;1.52;1.40;;;6.10;99.90;;;;;;5050120;28;20808;-69
2022/12/05 08:00:52;;;;;;;3.35;2.08;;;6.20;99.90;;;;;;5050262;28;20403;-69
2022/12/05 08:03:17;;;;;;;1.70;1.60;;;6.10;99.90;;;;;;5049713;28;20887;-69
2022/12/05 08:05:43;;;;;;;2.13;1.40;;;6.20;99.90;;;;;;5050731;28;20424;-69
2022/12/05 08:08:08;;;;;;;1.67;1.40;;;6.20;99.90;;;;;;5050442;28;20464;-70
2022/12/05 08:10:34;;;;;;;1.40;1.30;;;6.20;99.90;;;;;;5050563;28;20400;-70
2022/12/05 08:13:00;;;;;;;1.70;1.40;;;6.20;99.90;;;;;;5049658;28;20476;-69
2022/12/05 08:15:25;;;;;;;1.30;1.20;;;6.20;99.90;;;;;;5050250;28;20393;-69
2022/12/05 08:17:51;;;;;;;1.70;1.10;;;6.20;99.90;;;;;;5050159;28;20446;-69
2022/12/05 08:20:17;;;;;;;1.20;0.90;;;6.20;99.90;;;;;;5050243;28;20879;-69
2022/12/05 08:22:42;;;;;;;1.20;1.10;;;6.30;99.90;;;;;;5049507;28;20393;-70
2022/12/05 08:25:08;;;;;;;1.10;1.00;;;6.30;99.90;;;;;;5050250;28;20495;-70
2022/12/05 08:27:34;;;;;;;1.50;1.25;;;6.30;99.90;;;;;;5050092;28;20439;-69
2022/12/05 08:29:59;;;;;;;1.30;1.20;;;6.40;99.90;;;;;;5050109;28;20381;-69
2022/12/05 08:32:26;;;;;;;1.50;1.10;;;6.30;99.90;;;;;;5050015;28;20389;-69
2022/12/05 08:34:52;;;;;;;1.33;1.23;;;6.30;99.90;;;;;;5030193;28;20397;-69
2022/12/05 08:37:17;;;;;;;1.27;1.10;;;6.50;99.90;;;;;;5050148;28;20883;-70
2022/12/05 08:39:43;;;;;;;1.10;1.00;;;6.40;99.90;;;;;;5050174;28;20456;-70
2022/12/05 08:42:08;;;;;;;1.30;1.20;;;6.40;99.90;;;;;;5032023;28;20393;-69
2022/12/05 08:44:34;;;;;;;1.50;1.40;;;6.50;99.90;;;;;;5049319;28;20385;-70
2022/12/05 08:46:59;;;;;;;1.10;1.00;;;6.60;99.90;;;;;;5050011;28;20377;-69
2022/12/05 08:49:25;;;;;;;1.27;1.00;;;6.50;99.90;;;;;;5050039;28;20431;-69
2022/12/05 08:51:50;;;;;;;1.20;1.10;;;6.50;99.90;;;;;;5050134;28;20374;-70
2022/12/05 08:54:16;;;;;;;1.30;1.10;;;6.60;99.90;;;;;;5049230;28;20740;-70
2022/12/05 08:56:42;;;;;;;1.10;0.93;;;6.60;99.90;;;;;;5049697;28;20392;-70
2022/12/05 08:59:07;;;;;;;1.50;1.20;;;6.70;99.90;;;;;;5050027;28;20386;-70
2022/12/05 09:01:37;;;;;;;2.80;0.90;;;6.70;99.90;;;;;;5049926;28;20382;-70
2022/12/05 09:04:04;;;;;;;1.00;0.90;;;6.70;99.90;;;;;;5049123;28;20381;-70
2022/12/05 09:06:31;;;;;;;1.10;1.00;;;6.70;99.90;;;;;;5049855;28;20385;-70
2022/12/05 09:08:58;;;;;;;1.00;0.90;;;6.70;99.90;;;;;;5046781;28;20479;-70
2022/12/05 09:11:27;;;;;;;1.60;1.30;;;6.70;99.90;;;;;;5032502;28;20387;-70
2022/12/05 09:13:54;;;;;;;1.93;1.73;;;6.80;99.90;;;;;;5032807;28;20379;-70
2022/12/05 09:16:23;;;;;;;1.67;1.50;;;6.70;99.90;;;;;;5033748;28;20749;-70
2022/12/05 09:18:49;;;;;;;1.80;1.70;;;6.80;99.90;;;;;;5033385;28;20461;-70
2022/12/05 09:21:18;;;;;;;1.50;1.40;;;6.90;99.90;;;;;;5033561;28;20419;-70
2022/12/05 09:23:44;;;;;;;1.50;1.05;;;6.90;99.90;;;;;;5032509;28;20931;-70
2022/12/05 09:26:13;;;;;;;1.50;1.40;;;6.90;99.90;;;;;;5033513;28;20503;-70
2022/12/05 09:28:39;;;;;;;1.60;1.30;;;6.70;99.90;;;;;;5033344;28;20873;-70
2022/12/05 09:31:07;;;;;;;1.45;1.30;;;6.80;99.90;;;;;;5039260;28;20404;-70
2022/12/05 09:33:35;;;;;;;1.80;1.42;;;6.80;99.90;;;;;;5050605;28;20377;-70
2022/12/05 09:36:05;;;;;;;1.90;1.70;;;6.70;99.90;;;;;;5044750;28;20396;-70
2022/12/05 09:38:31;;;;;;;2.23;1.70;;;6.80;99.90;;;;;;5052956;28;20464;-70
2022/12/05 09:42:03;;;;;;;2.70;1.80;;;6.80;99.90;;;;;;5053042;28;20469;-70
2022/12/05 09:44:41;;;;;;;1.90;1.70;;;6.90;99.90;;;;;;5050013;28;20397;-70
2022/12/05 09:47:43;;;;;;;1.80;1.70;;;6.90;99.90;;;;;;5044652;28;20390;-70
2022/12/05 09:50:32;;;;;;;2.25;2.05;;;6.70;99.90;;;;;;5052772;28;20464;-69
2022/12/05 09:53:11;;;;;;;2.40;1.80;;;6.90;99.90;;;;;;5036232;28;20389;-71
2022/12/05 09:55:51;;;;;;;3.00;2.20;;;6.90;99.90;;;;;;5034127;28;20392;-70
2022/12/05 09:58:42;;;;;;;2.10;1.90;;;6.90;99.90;;;;;;5049102;28;20420;-70
2022/12/05 10:01:26;;;;;;;1.90;1.80;;;6.90;99.90;;;;;;5049735;28;20385;-70
2022/12/05 10:04:30;;;;;;;2.10;1.63;;;7.10;99.90;;;;;;5051646;28;20407;-70
2022/12/05 10:07:10;;;;;;;2.60;1.83;;;7.20;99.90;;;;;;5027560;28;20414;-70
2022/12/05 10:10:13;;;;;;;2.60;2.00;;;7.30;99.90;;;;;;5040982;28;20420;-70
2022/12/05 10:13:12;;;;;;;2.08;1.98;;;7.20;99.90;;;;;;5051587;28;20443;-70
2022/12/05 10:15:48;;;;;;;2.00;1.80;;;7.00;99.90;;;;;;5052361;28;20583;-70
2022/12/05 10:18:47;;;;;;;2.40;1.90;;;7.20;99.90;;;;;;5034345;28;20401;-70
2022/12/05 10:21:20;;;;;;;2.50;2.30;;;7.20;99.90;;;;;;5052168;28;20473;-70
2022/12/05 10:23:56;;;;;;;1.80;1.70;;;7.20;99.90;;;;;;5050975;28;20544;-70
2022/12/05 10:26:25;;;;;;;2.20;1.80;;;7.30;99.90;;;;;;5052129;28;20378;-70
2022/12/05 10:29:13;;;;;;;2.30;2.10;;;7.40;99.90;;;;;;5052099;28;20935;-70
2022/12/05 10:31:42;;;;;;;2.40;1.90;;;7.20;99.90;;;;;;5052080;28;20381;-70
2022/12/05 10:34:31;;;;;;;2.30;2.10;;;7.40;99.90;;;;;;5051219;28;20886;-70
2022/12/05 10:37:06;;;;;;;3.70;1.90;;;7.50;99.90;;;;;;5034046;28;20385;-70
2022/12/05 10:39:32;;;;;;;2.30;2.00;;;7.40;99.90;;;;;;5051777;28;20899;-70
2022/12/05 10:41:58;;;;;;;2.20;1.50;;;7.40;99.90;;;;;;5034191;28;20397;-70
2022/12/05 10:44:23;;;;;;;2.10;1.90;;;7.50;99.90;;;;;;5051094;28;20386;-70
2022/12/05 10:46:49;;;;;;;2.00;1.80;;;7.50;99.90;;;;;;5051769;28;20377;-70
2022/12/05 10:49:15;;;;;;;1.73;1.63;;;7.50;99.90;;;;;;5051857;28;20434;-70
2022/12/05 10:51:41;;;;;;;2.10;1.80;;;7.40;99.90;;;;;;5051747;28;20389;-70
2022/12/05 10:54:19;;;;;;;2.40;1.70;;;7.50;99.90;;;;;;5050817;28;20384;-70
2022/12/05 10:56:53;;;;;;;2.30;2.00;;;7.50;99.90;;;;;;5051446;28;20381;-70
2022/12/05 10:59:24;;;;;;;3.58;2.45;;;7.60;99.90;;;;;;5051586;28;20384;-70
2022/12/05 11:01:51;;;;;;;2.20;2.00;;;7.80;99.90;;;;;;5051517;28;20463;-70
2022/12/05 11:04:22;;;;;;;1.90;1.70;;;8.00;99.90;;;;;;5050838;28;20382;-70
2022/12/05 11:06:57;;;;;;;2.17;1.80;;;8.20;99.90;;;;;;5051240;28;20435;-70
2022/12/05 11:09:27;;;;;;;3.17;2.30;;;8.30;99.90;;;;;;5044588;28;20406;-70
2022/12/05 11:12:08;;;;;;;1.88;1.50;;;8.30;99.90;;;;;;5031399;28;20427;-70
2022/12/05 11:14:35;;;;;;;1.85;1.75;;;8.40;99.90;;;;;;5030857;28;20375;-70
2022/12/05 11:17:02;;;;;;;2.42;1.70;;;8.50;99.90;;;;;;5031097;28;20388;-70
2022/12/05 11:19:36;;;;;;;1.87;1.63;;;8.70;99.90;;;;;;5031412;28;20423;-70
2022/12/05 11:22:04;;;;;;;1.92;1.63;;;8.50;99.90;;;;;;5031240;28;20403;-70
2022/12/05 11:24:29;;;;;;;2.05;1.50;;;8.60;99.90;;;;;;5030486;28;21052;-70
2022/12/05 11:26:57;;;;;;;1.80;1.50;;;8.80;99.90;;;;;;5031094;28;20391;-70
2022/12/05 11:29:37;;;;;;;2.17;1.90;;;8.60;99.90;;;;;;5031245;28;20384;-70
2022/12/05 11:32:31;;;;;;;2.33;2.00;;;8.50;99.90;;;;;;5013923;28;20441;-74
2022/12/05 11:35:12;;;;;;;2.30;2.00;;;8.30;99.90;;;;;;5002746;28;20399;-69
2022/12/05 11:37:43;;;;;;;2.50;2.30;;;7.90;99.90;;;;;;5030894;28;20495;-69
2022/12/05 11:40:26;;;;;;;2.22;2.00;;;7.80;99.90;;;;;;5030806;28;20903;-69
2022/12/05 11:43:06;;;;;;;2.50;2.22;;;7.60;99.90;;;;;;5030201;28;20414;-69
2022/12/05 11:45:59;;;;;;;3.17;2.37;;;7.60;99.90;;;;;;5030966;28;20869;-70
2022/12/05 11:49:12;;;;;;;2.70;2.40;;;7.50;99.90;;;;;;5031082;28;20375;-70
2022/12/05 11:51:37;;;;;;;3.13;2.70;;;7.40;99.90;;;;;;4993622;28;20414;-70
2022/12/05 11:54:24;;;;;;;2.70;2.50;;;7.50;99.90;;;;;;5012245;28;20929;-70
2022/12/05 11:56:57;;;;;;;2.70;2.50;;;7.60;99.90;;;;;;5012909;28;20387;-70
2022/12/05 11:59:32;;;;;;;3.50;2.90;;;7.70;99.90;;;;;;5013123;28;20377;-70
2022/12/05 12:02:31;;;;;;;2.63;2.20;;;7.90;99.90;;;;;;5030499;28;20399;-70
2022/12/05 12:05:16;;;;;;;3.03;2.60;;;8.10;99.90;;;;;;5030280;28;20382;-70
2022/12/05 12:07:54;;;;;;;2.80;2.50;;;8.10;99.90;;;;;;5044594;28;20766;-70
2022/12/05 12:10:28;;;;;;;3.30;3.00;;;7.90;99.90;;;;;;5044323;28;20381;-69
2022/12/05 12:13:16;;;;;;;3.08;2.65;;;8.00;99.90;;;;;;5045029;28;20516;-70
2022/12/05 12:16:15;;;;;;;2.70;2.50;;;7.80;99.90;;;;;;5050619;28;20866;-70
2022/12/05 12:18:59;;;;;;;4.00;2.60;;;7.50;99.90;;;;;;5038742;28;20429;-70
2022/12/05 12:21:24;;;;;;;3.50;3.00;;;7.30;99.90;;;;;;5012713;28;20395;-70
2022/12/05 12:24:19;;;;;;;3.60;3.00;;;7.30;99.90;;;;;;5012002;28;20923;-70
2022/12/05 12:27:03;;;;;;;3.35;2.85;;;7.40;99.90;;;;;;5031813;28;20486;-69
2022/12/05 12:29:43;;;;;;;3.30;3.00;;;7.50;99.90;;;;;;5042398;28;20880;-70
2022/12/05 12:32:41;;;;;;;3.10;2.80;;;7.40;99.90;;;;;;5050639;28;20400;-70
2022/12/05 12:35:26;;;;;;;3.10;2.70;;;7.40;99.90;;;;;;5049621;28;20811;-70
2022/12/05 12:38:21;;;;;;;3.30;3.00;;;7.50;99.90;;;;;;5032166;28;20478;-70
2022/12/05 12:40:48;;;;;;;3.40;2.90;;;7.40;99.90;;;;;;5005012;28;20850;-70
2022/12/05 12:43:33;;;;;;;3.42;3.13;;;7.40;99.90;;;;;;5049367;28;20397;-70
2022/12/05 12:46:13;;;;;;;3.40;2.90;;;7.40;99.90;;;;;;5052405;28;20491;-70
2022/12/05 12:48:44;;;;;;;3.20;2.75;;;7.40;99.90;;;;;;5035994;28;20386;-70
2022/12/05 12:51:12;;;;;;;3.20;2.90;;;7.40;99.90;;;;;;5036162;28;20404;-70
2022/12/05 12:54:03;;;;;;;3.13;2.80;;;7.40;99.90;;;;;;5035464;28;20385;-70
2022/12/05 12:56:59;;;;;;;3.70;2.80;;;7.50;99.90;;;;;;5053993;28;20377;-70
2022/12/05 12:59:42;;;;;;;3.78;3.20;;;7.40;99.90;;;;;;5053969;28;20395;-70
2022/12/05 13:02:08;;;;;;;4.13;3.50;;;7.10;99.90;;;;;;5053763;28;20906;-70
2022/12/05 13:04:43;;;;;;;4.47;3.83;;;7.00;99.90;;;;;;5053117;28;20385;-70
2022/12/05 13:07:21;;;;;;;4.20;3.60;;;7.00;99.90;;;;;;5035819;28;20439;-70
2022/12/05 13:09:56;;;;;;;4.10;3.70;;;7.10;99.90;;;;;;5025772;28;20383;-70
2022/12/05 13:12:30;;;;;;;4.28;3.88;;;7.10;99.90;;;;;;5015937;28;20403;-70
2022/12/05 13:15:03;;;;;;;4.00;3.60;;;7.40;99.90;;;;;;5033561;28;20379;-70
2022/12/05 13:17:31;;;;;;;5.07;3.80;;;7.40;99.90;;;;;;5033438;28;20438;-71
2022/12/05 13:19:57;;;;;;;3.90;3.50;;;7.20;99.90;;;;;;5033541;28;20419;-71
2022/12/05 13:22:26;;;;;;;4.68;4.28;;;7.20;99.90;;;;;;5030708;28;20411;-69
2022/12/05 13:24:53;;;;;;;4.20;3.80;;;7.40;99.90;;;;;;5047499;28;20469;-70
2022/12/05 13:27:22;;;;;;;4.35;3.60;;;7.40;99.90;;;;;;5076046;22;20606;-70
2022/12/05 13:29:52;;;;;;;4.32;3.92;;;7.20;99.90;;;;;;5094118;28;20376;-70
2022/12/05 13:32:23;;;;;;;5.35;4.57;;;7.10;99.90;;;;;;5074636;28;20748;-69